sensor_id;sensor_type;location;lat;lon;timestamp;P1;durP1;ratioP1;P2;durP2;ratioP2
42364;SDS011;28498;54.400;18.566;2023-07-13T00:00:48;16.95;;;8.27;;
42364;SDS011;28498;54.400;18.566;2023-07-13T00:03:15;10.60;;;7.32;;
42364;SDS011;28498;54.400;18.566;2023-07-13T00:05:43;12.57;;;7.78;;
42364;SDS011;28498;54.400;18.566;2023-07-13T00:08:10;9.55;;;7.32;;
42364;SDS011;28498;54.400;18.566;2023-07-13T00:10:41;14.70;;;7.80;;
42364;SDS011;28498;54.400;18.566;2023-07-13T00:13:08;11.95;;;7.63;;
42364;SDS011;28498;54.400;18.566;2023-07-13T00:15:36;16.50;;;7.88;;
42364;SDS011;28498;54.400;18.566;2023-07-13T00:18:03;12.98;;;7.65;;
42364;SDS011;28498;54.400;18.566;2023-07-13T00:20:30;11.45;;;8.52;;
42364;SDS011;28498;54.400;18.566;2023-07-13T00:22:57;30.33;;;10.77;;
42364;SDS011;28498;54.400;18.566;2023-07-13T00:25:24;11.93;;;7.70;;
42364;SDS011;28498;54.400;18.566;2023-07-13T00:27:54;16.65;;;8.05;;
42364;SDS011;28498;54.400;18.566;2023-07-13T00:30:22;13.40;;;8.27;;
42364;SDS011;28498;54.400;18.566;2023-07-13T00:32:49;13.18;;;7.90;;
42364;SDS011;28498;54.400;18.566;2023-07-13T00:35:30;14.05;;;7.82;;
42364;SDS011;28498;54.400;18.566;2023-07-13T00:37:57;10.68;;;7.47;;
42364;SDS011;28498;54.400;18.566;2023-07-13T00:40:24;13.40;;;8.07;;
42364;SDS011;28498;54.400;18.566;2023-07-13T00:42:52;14.02;;;8.35;;
42364;SDS011;28498;54.400;18.566;2023-07-13T00:47:46;12.00;;;8.65;;
42364;SDS011;28498;54.400;18.566;2023-07-13T00:50:14;13.20;;;8.40;;
42364;SDS011;28498;54.400;18.566;2023-07-13T00:52:45;15.00;;;8.05;;
42364;SDS011;28498;54.400;18.566;2023-07-13T00:55:15;12.75;;;8.82;;
42364;SDS011;28498;54.400;18.566;2023-07-13T00:57:44;16.48;;;9.90;;
42364;SDS011;28498;54.400;18.566;2023-07-13T01:00:11;16.15;;;9.40;;
42364;SDS011;28498;54.400;18.566;2023-07-13T01:02:39;15.52;;;9.07;;
42364;SDS011;28498;54.400;18.566;2023-07-13T01:05:12;16.17;;;9.77;;
42364;SDS011;28498;54.400;18.566;2023-07-13T01:07:43;15.55;;;9.75;;
42364;SDS011;28498;54.400;18.566;2023-07-13T01:10:11;15.30;;;9.93;;
42364;SDS011;28498;54.400;18.566;2023-07-13T01:12:39;14.95;;;8.35;;
42364;SDS011;28498;54.400;18.566;2023-07-13T01:18:04;14.20;;;8.20;;
42364;SDS011;28498;54.400;18.566;2023-07-13T01:20:50;11.85;;;7.88;;
42364;SDS011;28498;54.400;18.566;2023-07-13T01:23:28;13.02;;;7.95;;
42364;SDS011;28498;54.400;18.566;2023-07-13T01:25:56;11.80;;;7.97;;
42364;SDS011;28498;54.400;18.566;2023-07-13T01:28:24;14.63;;;8.05;;
42364;SDS011;28498;54.400;18.566;2023-07-13T01:30:56;14.60;;;7.88;;
42364;SDS011;28498;54.400;18.566;2023-07-13T01:33:24;16.00;;;8.18;;
42364;SDS011;28498;54.400;18.566;2023-07-13T01:35:52;12.65;;;8.75;;
42364;SDS011;28498;54.400;18.566;2023-07-13T01:38:20;14.68;;;8.95;;
42364;SDS011;28498;54.400;18.566;2023-07-13T01:40:49;12.55;;;8.27;;
42364;SDS011;28498;54.400;18.566;2023-07-13T01:43:17;14.60;;;8.00;;
42364;SDS011;28498;54.400;18.566;2023-07-13T01:45:45;13.23;;;9.07;;
42364;SDS011;28498;54.400;18.566;2023-07-13T01:48:13;18.00;;;10.38;;
42364;SDS011;28498;54.400;18.566;2023-07-13T01:50:40;15.48;;;9.52;;
42364;SDS011;28498;54.400;18.566;2023-07-13T01:53:07;21.25;;;10.25;;
42364;SDS011;28498;54.400;18.566;2023-07-13T01:55:35;15.30;;;9.35;;
42364;SDS011;28498;54.400;18.566;2023-07-13T01:58:03;12.73;;;8.60;;
42364;SDS011;28498;54.400;18.566;2023-07-13T02:00:31;13.95;;;8.65;;
42364;SDS011;28498;54.400;18.566;2023-07-13T02:02:59;15.60;;;9.38;;
42364;SDS011;28498;54.400;18.566;2023-07-13T02:05:26;15.38;;;9.15;;
42364;SDS011;28498;54.400;18.566;2023-07-13T02:07:53;15.40;;;9.57;;
42364;SDS011;28498;54.400;18.566;2023-07-13T02:10:20;19.17;;;9.40;;
42364;SDS011;28498;54.400;18.566;2023-07-13T02:12:48;15.15;;;9.38;;
42364;SDS011;28498;54.400;18.566;2023-07-13T02:15:16;19.23;;;9.60;;
42364;SDS011;28498;54.400;18.566;2023-07-13T02:17:44;13.88;;;9.38;;
42364;SDS011;28498;54.400;18.566;2023-07-13T02:20:11;12.93;;;9.10;;
42364;SDS011;28498;54.400;18.566;2023-07-13T02:22:38;13.50;;;8.55;;
42364;SDS011;28498;54.400;18.566;2023-07-13T02:25:05;14.18;;;9.15;;
42364;SDS011;28498;54.400;18.566;2023-07-13T02:27:32;14.88;;;9.88;;
42364;SDS011;28498;54.400;18.566;2023-07-13T02:30:00;16.45;;;9.13;;
42364;SDS011;28498;54.400;18.566;2023-07-13T02:32:27;14.52;;;9.77;;
42364;SDS011;28498;54.400;18.566;2023-07-13T02:34:54;12.45;;;8.90;;
42364;SDS011;28498;54.400;18.566;2023-07-13T02:37:21;13.93;;;9.88;;
42364;SDS011;28498;54.400;18.566;2023-07-13T02:39:48;14.60;;;9.82;;
42364;SDS011;28498;54.400;18.566;2023-07-13T02:42:15;15.13;;;9.55;;
42364;SDS011;28498;54.400;18.566;2023-07-13T02:44:42;16.17;;;9.25;;
42364;SDS011;28498;54.400;18.566;2023-07-13T02:47:09;17.27;;;9.50;;
42364;SDS011;28498;54.400;18.566;2023-07-13T02:49:36;15.75;;;8.93;;
42364;SDS011;28498;54.400;18.566;2023-07-13T02:52:03;15.73;;;8.77;;
42364;SDS011;28498;54.400;18.566;2023-07-13T02:54:30;13.60;;;9.63;;
42364;SDS011;28498;54.400;18.566;2023-07-13T02:56:57;17.10;;;9.20;;
42364;SDS011;28498;54.400;18.566;2023-07-13T02:59:24;13.45;;;8.90;;
42364;SDS011;28498;54.400;18.566;2023-07-13T03:01:51;15.35;;;8.52;;
42364;SDS011;28498;54.400;18.566;2023-07-13T03:04:19;11.63;;;8.23;;
42364;SDS011;28498;54.400;18.566;2023-07-13T03:06:46;11.35;;;8.50;;
42364;SDS011;28498;54.400;18.566;2023-07-13T03:09:13;11.00;;;7.90;;
42364;SDS011;28498;54.400;18.566;2023-07-13T03:11:40;14.73;;;8.60;;
42364;SDS011;28498;54.400;18.566;2023-07-13T03:14:07;10.65;;;7.60;;
42364;SDS011;28498;54.400;18.566;2023-07-13T03:16:35;14.15;;;8.00;;
42364;SDS011;28498;54.400;18.566;2023-07-13T03:19:02;13.23;;;7.55;;
42364;SDS011;28498;54.400;18.566;2023-07-13T03:21:29;10.93;;;7.35;;
42364;SDS011;28498;54.400;18.566;2023-07-13T03:23:56;14.32;;;7.88;;
42364;SDS011;28498;54.400;18.566;2023-07-13T03:26:24;12.32;;;7.15;;
42364;SDS011;28498;54.400;18.566;2023-07-13T03:28:51;11.05;;;7.15;;
42364;SDS011;28498;54.400;18.566;2023-07-13T03:31:19;14.55;;;7.63;;
42364;SDS011;28498;54.400;18.566;2023-07-13T03:33:48;13.82;;;7.63;;
42364;SDS011;28498;54.400;18.566;2023-07-13T03:36:17;12.93;;;7.53;;
42364;SDS011;28498;54.400;18.566;2023-07-13T03:38:47;11.50;;;7.00;;
42364;SDS011;28498;54.400;18.566;2023-07-13T03:41:16;12.15;;;7.78;;
42364;SDS011;28498;54.400;18.566;2023-07-13T03:43:43;12.52;;;7.78;;
42364;SDS011;28498;54.400;18.566;2023-07-13T03:46:10;9.02;;;6.68;;
42364;SDS011;28498;54.400;18.566;2023-07-13T03:48:38;12.77;;;7.75;;
42364;SDS011;28498;54.400;18.566;2023-07-13T03:51:07;10.18;;;6.75;;
42364;SDS011;28498;54.400;18.566;2023-07-13T03:53:37;9.73;;;6.95;;
42364;SDS011;28498;54.400;18.566;2023-07-13T03:56:05;13.93;;;7.50;;
42364;SDS011;28498;54.400;18.566;2023-07-13T03:58:36;12.25;;;7.05;;
42364;SDS011;28498;54.400;18.566;2023-07-13T04:01:06;15.18;;;6.78;;
42364;SDS011;28498;54.400;18.566;2023-07-13T04:03:34;13.20;;;6.65;;
42364;SDS011;28498;54.400;18.566;2023-07-13T04:06:03;12.07;;;5.43;;
42364;SDS011;28498;54.400;18.566;2023-07-13T04:08:33;14.93;;;6.32;;
42364;SDS011;28498;54.400;18.566;2023-07-13T04:11:01;10.55;;;4.53;;
42364;SDS011;28498;54.400;18.566;2023-07-13T04:13:29;10.35;;;4.53;;
42364;SDS011;28498;54.400;18.566;2023-07-13T04:15:56;8.93;;;3.70;;
42364;SDS011;28498;54.400;18.566;2023-07-13T04:18:23;9.77;;;3.78;;
42364;SDS011;28498;54.400;18.566;2023-07-13T04:20:50;7.38;;;3.40;;
42364;SDS011;28498;54.400;18.566;2023-07-13T04:23:18;5.90;;;3.72;;
42364;SDS011;28498;54.400;18.566;2023-07-13T04:25:46;11.35;;;3.60;;
42364;SDS011;28498;54.400;18.566;2023-07-13T04:28:16;8.93;;;3.55;;
42364;SDS011;28498;54.400;18.566;2023-07-13T04:30:44;9.32;;;3.13;;
42364;SDS011;28498;54.400;18.566;2023-07-13T04:33:11;6.15;;;3.22;;
42364;SDS011;28498;54.400;18.566;2023-07-13T04:35:38;5.90;;;3.13;;
42364;SDS011;28498;54.400;18.566;2023-07-13T04:38:05;7.75;;;2.60;;
42364;SDS011;28498;54.400;18.566;2023-07-13T04:40:33;7.55;;;3.58;;
42364;SDS011;28498;54.400;18.566;2023-07-13T04:43:00;6.75;;;2.90;;
42364;SDS011;28498;54.400;18.566;2023-07-13T04:45:27;7.45;;;2.70;;
42364;SDS011;28498;54.400;18.566;2023-07-13T04:47:54;6.50;;;2.53;;
42364;SDS011;28498;54.400;18.566;2023-07-13T04:50:21;9.65;;;2.50;;
42364;SDS011;28498;54.400;18.566;2023-07-13T04:52:50;6.47;;;2.75;;
42364;SDS011;28498;54.400;18.566;2023-07-13T04:55:18;7.75;;;2.88;;
42364;SDS011;28498;54.400;18.566;2023-07-13T04:57:45;5.72;;;3.22;;
42364;SDS011;28498;54.400;18.566;2023-07-13T05:00:13;6.43;;;2.65;;
42364;SDS011;28498;54.400;18.566;2023-07-13T05:02:43;8.30;;;3.70;;
42364;SDS011;28498;54.400;18.566;2023-07-13T05:05:12;9.88;;;3.22;;
42364;SDS011;28498;54.400;18.566;2023-07-13T05:07:39;9.63;;;3.08;;
42364;SDS011;28498;54.400;18.566;2023-07-13T05:10:06;7.63;;;2.80;;
42364;SDS011;28498;54.400;18.566;2023-07-13T05:12:34;8.25;;;3.15;;
42364;SDS011;28498;54.400;18.566;2023-07-13T05:15:02;7.95;;;2.95;;
42364;SDS011;28498;54.400;18.566;2023-07-13T05:17:29;11.63;;;3.67;;
42364;SDS011;28498;54.400;18.566;2023-07-13T05:19:56;9.35;;;3.03;;
42364;SDS011;28498;54.400;18.566;2023-07-13T05:22:24;6.00;;;2.67;;
42364;SDS011;28498;54.400;18.566;2023-07-13T05:24:51;8.80;;;2.83;;
42364;SDS011;28498;54.400;18.566;2023-07-13T05:27:18;7.28;;;2.72;;
42364;SDS011;28498;54.400;18.566;2023-07-13T05:29:45;7.70;;;2.70;;
42364;SDS011;28498;54.400;18.566;2023-07-13T05:32:12;8.45;;;3.33;;
42364;SDS011;28498;54.400;18.566;2023-07-13T05:34:39;6.60;;;2.50;;
42364;SDS011;28498;54.400;18.566;2023-07-13T05:37:07;9.07;;;2.97;;
42364;SDS011;28498;54.400;18.566;2023-07-13T05:39:34;11.48;;;2.60;;
42364;SDS011;28498;54.400;18.566;2023-07-13T05:42:02;6.32;;;2.42;;
42364;SDS011;28498;54.400;18.566;2023-07-13T05:44:29;8.18;;;2.47;;
42364;SDS011;28498;54.400;18.566;2023-07-13T05:46:56;7.50;;;2.40;;
42364;SDS011;28498;54.400;18.566;2023-07-13T05:49:23;5.32;;;2.53;;
42364;SDS011;28498;54.400;18.566;2023-07-13T05:51:50;8.10;;;2.38;;
42364;SDS011;28498;54.400;18.566;2023-07-13T05:54:17;7.05;;;2.53;;
42364;SDS011;28498;54.400;18.566;2023-07-13T05:56:44;10.25;;;2.60;;
42364;SDS011;28498;54.400;18.566;2023-07-13T05:59:12;7.90;;;2.28;;
42364;SDS011;28498;54.400;18.566;2023-07-13T06:01:40;7.53;;;2.47;;
42364;SDS011;28498;54.400;18.566;2023-07-13T06:04:08;3.70;;;1.90;;
42364;SDS011;28498;54.400;18.566;2023-07-13T06:06:35;7.10;;;2.42;;
42364;SDS011;28498;54.400;18.566;2023-07-13T06:09:02;5.97;;;2.20;;
42364;SDS011;28498;54.400;18.566;2023-07-13T06:11:29;5.20;;;2.30;;
42364;SDS011;28498;54.400;18.566;2023-07-13T06:13:56;5.10;;;1.92;;
42364;SDS011;28498;54.400;18.566;2023-07-13T06:16:24;9.02;;;3.47;;
42364;SDS011;28498;54.400;18.566;2023-07-13T06:18:51;8.13;;;2.15;;
42364;SDS011;28498;54.400;18.566;2023-07-13T06:21:19;5.32;;;2.00;;
42364;SDS011;28498;54.400;18.566;2023-07-13T06:23:48;6.07;;;2.00;;
42364;SDS011;28498;54.400;18.566;2023-07-13T06:26:17;8.43;;;2.20;;
42364;SDS011;28498;54.400;18.566;2023-07-13T06:28:45;4.93;;;1.92;;
42364;SDS011;28498;54.400;18.566;2023-07-13T06:34:53;7.20;;;2.15;;
42364;SDS011;28498;54.400;18.566;2023-07-13T06:37:20;5.18;;;1.92;;
42364;SDS011;28498;54.400;18.566;2023-07-13T06:39:47;5.15;;;1.70;;
42364;SDS011;28498;54.400;18.566;2023-07-13T06:45:55;5.63;;;1.75;;
42364;SDS011;28498;54.400;18.566;2023-07-13T06:48:22;7.82;;;2.00;;
42364;SDS011;28498;54.400;18.566;2023-07-13T06:50:50;4.70;;;2.00;;
42364;SDS011;28498;54.400;18.566;2023-07-13T06:53:18;5.03;;;1.88;;
42364;SDS011;28498;54.400;18.566;2023-07-13T06:55:46;6.82;;;1.75;;
42364;SDS011;28498;54.400;18.566;2023-07-13T06:58:17;3.67;;;1.75;;
42364;SDS011;28498;54.400;18.566;2023-07-13T07:00:45;5.10;;;1.75;;
42364;SDS011;28498;54.400;18.566;2023-07-13T07:03:12;5.63;;;1.67;;
42364;SDS011;28498;54.400;18.566;2023-07-13T07:05:40;5.00;;;1.70;;
42364;SDS011;28498;54.400;18.566;2023-07-13T07:08:07;4.38;;;1.70;;
42364;SDS011;28498;54.400;18.566;2023-07-13T07:10:34;22.55;;;3.88;;
42364;SDS011;28498;54.400;18.566;2023-07-13T07:13:02;9.07;;;1.65;;
42364;SDS011;28498;54.400;18.566;2023-07-13T07:15:29;4.00;;;1.60;;
42364;SDS011;28498;54.400;18.566;2023-07-13T07:17:57;4.15;;;1.45;;
42364;SDS011;28498;54.400;18.566;2023-07-13T07:20:24;5.38;;;1.58;;
42364;SDS011;28498;54.400;18.566;2023-07-13T07:22:51;5.07;;;1.90;;
42364;SDS011;28498;54.400;18.566;2023-07-13T07:25:18;4.10;;;1.50;;
42364;SDS011;28498;54.400;18.566;2023-07-13T07:27:46;5.22;;;1.40;;
42364;SDS011;28498;54.400;18.566;2023-07-13T07:30:15;6.03;;;1.65;;
42364;SDS011;28498;54.400;18.566;2023-07-13T07:32:45;3.60;;;1.58;;
42364;SDS011;28498;54.400;18.566;2023-07-13T07:35:15;6.70;;;1.70;;
42364;SDS011;28498;54.400;18.566;2023-07-13T07:37:42;3.75;;;1.50;;
42364;SDS011;28498;54.400;18.566;2023-07-13T07:40:12;4.50;;;1.50;;
42364;SDS011;28498;54.400;18.566;2023-07-13T07:42:42;4.38;;;1.60;;
42364;SDS011;28498;54.400;18.566;2023-07-13T07:45:09;6.85;;;1.40;;
42364;SDS011;28498;54.400;18.566;2023-07-13T07:47:38;5.18;;;1.60;;
42364;SDS011;28498;54.400;18.566;2023-07-13T07:50:05;5.35;;;1.70;;
42364;SDS011;28498;54.400;18.566;2023-07-13T07:52:32;4.40;;;1.52;;
42364;SDS011;28498;54.400;18.566;2023-07-13T07:54:59;4.82;;;1.77;;
42364;SDS011;28498;54.400;18.566;2023-07-13T07:57:29;4.32;;;1.52;;
42364;SDS011;28498;54.400;18.566;2023-07-13T07:59:59;6.07;;;1.67;;
42364;SDS011;28498;54.400;18.566;2023-07-13T08:02:29;4.75;;;1.63;;
42364;SDS011;28498;54.400;18.566;2023-07-13T08:04:59;6.05;;;1.80;;
42364;SDS011;28498;54.400;18.566;2023-07-13T08:07:30;3.70;;;1.20;;
42364;SDS011;28498;54.400;18.566;2023-07-13T08:09:58;3.58;;;1.27;;
42364;SDS011;28498;54.400;18.566;2023-07-13T08:12:25;5.47;;;1.95;;
42364;SDS011;28498;54.400;18.566;2023-07-13T08:14:55;5.55;;;1.30;;
42364;SDS011;28498;54.400;18.566;2023-07-13T08:17:24;4.65;;;1.10;;
42364;SDS011;28498;54.400;18.566;2023-07-13T08:19:52;5.93;;;1.58;;
42364;SDS011;28498;54.400;18.566;2023-07-13T08:22:19;4.97;;;1.58;;
42364;SDS011;28498;54.400;18.566;2023-07-13T08:24:46;3.08;;;1.17;;
42364;SDS011;28498;54.400;18.566;2023-07-13T08:27:21;4.75;;;1.85;;
42364;SDS011;28498;54.400;18.566;2023-07-13T08:29:50;5.18;;;1.25;;
42364;SDS011;28498;54.400;18.566;2023-07-13T08:32:18;5.22;;;1.35;;
42364;SDS011;28498;54.400;18.566;2023-07-13T08:34:47;3.75;;;1.27;;
42364;SDS011;28498;54.400;18.566;2023-07-13T08:37:14;3.28;;;1.00;;
42364;SDS011;28498;54.400;18.566;2023-07-13T08:39:41;2.83;;;1.10;;
42364;SDS011;28498;54.400;18.566;2023-07-13T08:42:19;2.97;;;1.20;;
42364;SDS011;28498;54.400;18.566;2023-07-13T08:45:22;4.43;;;1.25;;
42364;SDS011;28498;54.400;18.566;2023-07-13T08:48:12;3.78;;;1.33;;
42364;SDS011;28498;54.400;18.566;2023-07-13T08:50:53;3.83;;;1.48;;
42364;SDS011;28498;54.400;18.566;2023-07-13T08:53:34;6.47;;;1.30;;
42364;SDS011;28498;54.400;18.566;2023-07-13T08:56:09;4.13;;;1.40;;
42364;SDS011;28498;54.400;18.566;2023-07-13T08:58:42;3.97;;;1.30;;
42364;SDS011;28498;54.400;18.566;2023-07-13T09:01:19;4.32;;;1.30;;
42364;SDS011;28498;54.400;18.566;2023-07-13T09:04:05;4.35;;;1.23;;
42364;SDS011;28498;54.400;18.566;2023-07-13T09:06:40;2.78;;;1.27;;
42364;SDS011;28498;54.400;18.566;2023-07-13T09:09:18;5.78;;;1.45;;
42364;SDS011;28498;54.400;18.566;2023-07-13T09:12:01;3.50;;;1.27;;
42364;SDS011;28498;54.400;18.566;2023-07-13T09:15:14;4.50;;;1.38;;
42364;SDS011;28498;54.400;18.566;2023-07-13T09:21:10;3.38;;;1.30;;
42364;SDS011;28498;54.400;18.566;2023-07-13T09:27:33;3.88;;;1.20;;
42364;SDS011;28498;54.400;18.566;2023-07-13T09:36:30;4.53;;;1.33;;
42364;SDS011;28498;54.400;18.566;2023-07-13T09:39:02;3.75;;;1.50;;
42364;SDS011;28498;54.400;18.566;2023-07-13T09:46:43;4.20;;;1.42;;
42364;SDS011;28498;54.400;18.566;2023-07-13T09:49:22;4.05;;;1.40;;
42364;SDS011;28498;54.400;18.566;2023-07-13T09:52:01;3.63;;;1.40;;
42364;SDS011;28498;54.400;18.566;2023-07-13T09:54:32;3.90;;;1.25;;
42364;SDS011;28498;54.400;18.566;2023-07-13T09:57:01;2.38;;;1.10;;
42364;SDS011;28498;54.400;18.566;2023-07-13T09:59:32;6.93;;;1.20;;
42364;SDS011;28498;54.400;18.566;2023-07-13T10:02:00;4.80;;;1.27;;
42364;SDS011;28498;54.400;18.566;2023-07-13T10:04:32;4.15;;;1.30;;
42364;SDS011;28498;54.400;18.566;2023-07-13T10:07:11;5.47;;;1.45;;
42364;SDS011;28498;54.400;18.566;2023-07-13T10:09:56;5.00;;;1.58;;
42364;SDS011;28498;54.400;18.566;2023-07-13T10:12:28;3.13;;;1.20;;
42364;SDS011;28498;54.400;18.566;2023-07-13T10:14:58;4.18;;;1.42;;
42364;SDS011;28498;54.400;18.566;2023-07-13T10:17:48;4.82;;;1.50;;
42364;SDS011;28498;54.400;18.566;2023-07-13T10:20:17;5.13;;;2.03;;
42364;SDS011;28498;54.400;18.566;2023-07-13T10:23:00;5.18;;;1.55;;
42364;SDS011;28498;54.400;18.566;2023-07-13T10:25:32;3.92;;;1.70;;
42364;SDS011;28498;54.400;18.566;2023-07-13T10:30:53;3.58;;;1.25;;
42364;SDS011;28498;54.400;18.566;2023-07-13T10:33:25;3.60;;;1.40;;
42364;SDS011;28498;54.400;18.566;2023-07-13T10:36:16;3.35;;;1.42;;
42364;SDS011;28498;54.400;18.566;2023-07-13T10:38:55;4.30;;;1.77;;
42364;SDS011;28498;54.400;18.566;2023-07-13T10:41:26;5.20;;;1.85;;
42364;SDS011;28498;54.400;18.566;2023-07-13T10:43:56;3.00;;;1.50;;
42364;SDS011;28498;54.400;18.566;2023-07-13T10:46:25;3.38;;;1.50;;
42364;SDS011;28498;54.400;18.566;2023-07-13T10:48:56;3.65;;;1.85;;
42364;SDS011;28498;54.400;18.566;2023-07-13T10:51:26;3.08;;;1.60;;
42364;SDS011;28498;54.400;18.566;2023-07-13T10:54:10;2.95;;;1.67;;
42364;SDS011;28498;54.400;18.566;2023-07-13T10:56:46;3.63;;;1.65;;
42364;SDS011;28498;54.400;18.566;2023-07-13T10:59:24;4.63;;;1.80;;
42364;SDS011;28498;54.400;18.566;2023-07-13T11:01:57;5.45;;;1.80;;
42364;SDS011;28498;54.400;18.566;2023-07-13T11:04:45;4.72;;;1.83;;
42364;SDS011;28498;54.400;18.566;2023-07-13T11:07:25;7.38;;;2.28;;
42364;SDS011;28498;54.400;18.566;2023-07-13T11:09:55;7.20;;;2.30;;
42364;SDS011;28498;54.400;18.566;2023-07-13T11:17:46;4.63;;;1.90;;
42364;SDS011;28498;54.400;18.566;2023-07-13T11:23:07;7.90;;;2.42;;
42364;SDS011;28498;54.400;18.566;2023-07-13T11:25:42;8.32;;;2.17;;
42364;SDS011;28498;54.400;18.566;2023-07-13T11:33:14;9.32;;;2.28;;
42364;SDS011;28498;54.400;18.566;2023-07-13T11:40:56;6.97;;;2.42;;
42364;SDS011;28498;54.400;18.566;2023-07-13T11:43:29;6.10;;;2.13;;
42364;SDS011;28498;54.400;18.566;2023-07-13T11:45:56;3.80;;;1.65;;
42364;SDS011;28498;54.400;18.566;2023-07-13T11:48:28;6.63;;;1.77;;
42364;SDS011;28498;54.400;18.566;2023-07-13T11:50:59;4.90;;;2.08;;
42364;SDS011;28498;54.400;18.566;2023-07-13T11:53:38;4.80;;;1.50;;
42364;SDS011;28498;54.400;18.566;2023-07-13T11:56:07;5.25;;;1.70;;
42364;SDS011;28498;54.400;18.566;2023-07-13T11:58:35;5.90;;;2.42;;
42364;SDS011;28498;54.400;18.566;2023-07-13T12:01:02;6.20;;;1.80;;
42364;SDS011;28498;54.400;18.566;2023-07-13T12:03:33;4.20;;;1.55;;
42364;SDS011;28498;54.400;18.566;2023-07-13T12:06:05;4.13;;;1.60;;
42364;SDS011;28498;54.400;18.566;2023-07-13T12:08:49;5.45;;;1.58;;
42364;SDS011;28498;54.400;18.566;2023-07-13T12:11:17;5.93;;;1.80;;
42364;SDS011;28498;54.400;18.566;2023-07-13T12:13:45;4.65;;;2.40;;
42364;SDS011;28498;54.400;18.566;2023-07-13T12:16:15;5.38;;;1.50;;
42364;SDS011;28498;54.400;18.566;2023-07-13T12:19:03;3.53;;;1.52;;
42364;SDS011;28498;54.400;18.566;2023-07-13T12:21:31;6.00;;;1.50;;
42364;SDS011;28498;54.400;18.566;2023-07-13T12:24:12;3.40;;;1.70;;
42364;SDS011;28498;54.400;18.566;2023-07-13T12:26:43;4.57;;;1.77;;
42364;SDS011;28498;54.400;18.566;2023-07-13T12:29:13;4.28;;;1.60;;
42364;SDS011;28498;54.400;18.566;2023-07-13T12:31:44;4.88;;;1.70;;
42364;SDS011;28498;54.400;18.566;2023-07-13T12:34:16;4.45;;;1.50;;
42364;SDS011;28498;54.400;18.566;2023-07-13T12:36:55;3.22;;;1.60;;
42364;SDS011;28498;54.400;18.566;2023-07-13T12:42:23;5.00;;;1.35;;
42364;SDS011;28498;54.400;18.566;2023-07-13T12:45:11;3.95;;;1.25;;
42364;SDS011;28498;54.400;18.566;2023-07-13T12:47:48;4.88;;;1.35;;
42364;SDS011;28498;54.400;18.566;2023-07-13T12:50:21;3.28;;;1.25;;
42364;SDS011;28498;54.400;18.566;2023-07-13T12:52:51;4.00;;;1.40;;
42364;SDS011;28498;54.400;18.566;2023-07-13T12:55:21;5.05;;;2.25;;
42364;SDS011;28498;54.400;18.566;2023-07-13T12:57:51;6.07;;;1.23;;
42364;SDS011;28498;54.400;18.566;2023-07-13T13:00:33;4.45;;;1.58;;
42364;SDS011;28498;54.400;18.566;2023-07-13T13:08:42;3.17;;;1.50;;
42364;SDS011;28498;54.400;18.566;2023-07-13T13:11:10;5.57;;;1.13;;
42364;SDS011;28498;54.400;18.566;2023-07-13T13:13:37;5.25;;;1.40;;
42364;SDS011;28498;54.400;18.566;2023-07-13T13:18:41;3.45;;;1.40;;
42364;SDS011;28498;54.400;18.566;2023-07-13T13:21:08;2.35;;;1.00;;
42364;SDS011;28498;54.400;18.566;2023-07-13T13:23:36;2.72;;;1.20;;
42364;SDS011;28498;54.400;18.566;2023-07-13T13:26:05;6.65;;;2.15;;
42364;SDS011;28498;54.400;18.566;2023-07-13T13:28:37;3.13;;;1.20;;
42364;SDS011;28498;54.400;18.566;2023-07-13T13:31:04;3.38;;;1.23;;
42364;SDS011;28498;54.400;18.566;2023-07-13T13:33:31;5.63;;;1.10;;
42364;SDS011;28498;54.400;18.566;2023-07-13T13:35:59;5.70;;;1.75;;
42364;SDS011;28498;54.400;18.566;2023-07-13T13:38:26;4.70;;;1.13;;
42364;SDS011;28498;54.400;18.566;2023-07-13T13:40:54;4.90;;;1.13;;
42364;SDS011;28498;54.400;18.566;2023-07-13T13:43:26;5.65;;;1.23;;
42364;SDS011;28498;54.400;18.566;2023-07-13T13:45:55;5.93;;;1.10;;
42364;SDS011;28498;54.400;18.566;2023-07-13T13:48:35;3.85;;;1.10;;
42364;SDS011;28498;54.400;18.566;2023-07-13T13:51:12;4.75;;;1.33;;
42364;SDS011;28498;54.400;18.566;2023-07-13T13:53:43;5.95;;;1.45;;
42364;SDS011;28498;54.400;18.566;2023-07-13T13:56:10;3.70;;;1.35;;
42364;SDS011;28498;54.400;18.566;2023-07-13T13:58:39;3.15;;;0.80;;
42364;SDS011;28498;54.400;18.566;2023-07-13T14:01:14;5.13;;;1.60;;
42364;SDS011;28498;54.400;18.566;2023-07-13T14:03:44;4.38;;;0.98;;
42364;SDS011;28498;54.400;18.566;2023-07-13T14:06:12;3.17;;;1.13;;
42364;SDS011;28498;54.400;18.566;2023-07-13T14:08:40;3.65;;;1.00;;
42364;SDS011;28498;54.400;18.566;2023-07-13T14:14:58;5.57;;;1.20;;
42364;SDS011;28498;54.400;18.566;2023-07-13T14:17:25;4.45;;;1.00;;
42364;SDS011;28498;54.400;18.566;2023-07-13T14:19:54;6.38;;;1.00;;
42364;SDS011;28498;54.400;18.566;2023-07-13T14:22:24;3.17;;;0.90;;
42364;SDS011;28498;54.400;18.566;2023-07-13T14:24:53;2.60;;;1.00;;
42364;SDS011;28498;54.400;18.566;2023-07-13T14:27:21;4.45;;;1.20;;
42364;SDS011;28498;54.400;18.566;2023-07-13T14:29:48;3.38;;;1.20;;
42364;SDS011;28498;54.400;18.566;2023-07-13T14:32:16;2.75;;;1.00;;
42364;SDS011;28498;54.400;18.566;2023-07-13T14:34:43;4.22;;;1.40;;
42364;SDS011;28498;54.400;18.566;2023-07-13T14:37:12;4.00;;;1.00;;
42364;SDS011;28498;54.400;18.566;2023-07-13T14:39:42;3.53;;;1.25;;
42364;SDS011;28498;54.400;18.566;2023-07-13T14:42:10;5.45;;;1.10;;
42364;SDS011;28498;54.400;18.566;2023-07-13T14:44:38;3.33;;;1.00;;
42364;SDS011;28498;54.400;18.566;2023-07-13T14:47:06;2.70;;;0.90;;
42364;SDS011;28498;54.400;18.566;2023-07-13T14:52:05;13.35;;;1.92;;
42364;SDS011;28498;54.400;18.566;2023-07-13T14:54:37;3.75;;;1.00;;
42364;SDS011;28498;54.400;18.566;2023-07-13T14:57:14;5.88;;;1.15;;
42364;SDS011;28498;54.400;18.566;2023-07-13T14:59:45;4.28;;;1.23;;
42364;SDS011;28498;54.400;18.566;2023-07-13T15:04:56;2.67;;;1.02;;
42364;SDS011;28498;54.400;18.566;2023-07-13T15:07:23;2.92;;;1.00;;
42364;SDS011;28498;54.400;18.566;2023-07-13T15:09:51;4.35;;;1.20;;
42364;SDS011;28498;54.400;18.566;2023-07-13T15:12:18;4.15;;;1.30;;
42364;SDS011;28498;54.400;18.566;2023-07-13T15:14:46;3.00;;;0.80;;
42364;SDS011;28498;54.400;18.566;2023-07-13T15:17:24;3.25;;;1.20;;
42364;SDS011;28498;54.400;18.566;2023-07-13T15:19:56;3.22;;;1.23;;
42364;SDS011;28498;54.400;18.566;2023-07-13T15:22:25;3.47;;;1.00;;
42364;SDS011;28498;54.400;18.566;2023-07-13T15:24:52;5.38;;;1.10;;
42364;SDS011;28498;54.400;18.566;2023-07-13T15:27:20;2.78;;;0.90;;
42364;SDS011;28498;54.400;18.566;2023-07-13T15:29:47;3.78;;;1.20;;
42364;SDS011;28498;54.400;18.566;2023-07-13T15:32:14;3.28;;;1.50;;
42364;SDS011;28498;54.400;18.566;2023-07-13T15:34:42;3.58;;;1.15;;
42364;SDS011;28498;54.400;18.566;2023-07-13T15:37:13;4.53;;;1.05;;
42364;SDS011;28498;54.400;18.566;2023-07-13T15:39:41;3.25;;;0.80;;
42364;SDS011;28498;54.400;18.566;2023-07-13T15:42:13;4.28;;;1.42;;
42364;SDS011;28498;54.400;18.566;2023-07-13T15:44:45;5.60;;;1.35;;
42364;SDS011;28498;54.400;18.566;2023-07-13T15:47:14;2.65;;;0.80;;
42364;SDS011;28498;54.400;18.566;2023-07-13T15:49:42;2.95;;;0.95;;
42364;SDS011;28498;54.400;18.566;2023-07-13T15:52:16;2.85;;;0.88;;
42364;SDS011;28498;54.400;18.566;2023-07-13T15:54:49;3.85;;;1.30;;
42364;SDS011;28498;54.400;18.566;2023-07-13T15:57:16;2.85;;;1.00;;
42364;SDS011;28498;54.400;18.566;2023-07-13T15:59:44;5.38;;;1.17;;